This is the latest recevied weather packets stored in our database for station/object SV2ASS-2. If no packets are shown the sender has not sent any weather packets the latest 10 day(s).
| Time | Temp. | Humidity | Pressure | Rain* | Wind** | Luminosity | Snow |
|---|---|---|---|---|---|---|---|
| 1777945364 | 11.67° C | 49% | 1019.6 hPa | - | - | - | - |
| 1777944464 | 11.67° C | 49% | 1019.7 hPa | - | - | - | - |
| 1777943564 | 11.67° C | 55% | 1019.7 hPa | - | - | - | - |
| 1777942664 | 11.67° C | 53% | 1019.6 hPa | - | - | - | - |
| 1777941764 | 12.22° C | 50% | 1019.7 hPa | - | - | - | - |
| 1777940864 | 13.89° C | 48% | 1019.7 hPa | - | - | - | - |
| 1777939964 | 13.89° C | 48% | 1019.7 hPa | - | - | - | - |
| 1777939064 | 11.67° C | 52% | 1019.8 hPa | - | - | - | - |
| 1777938163 | 11.67° C | 51% | 1019.8 hPa | - | - | - | - |
| 1777937263 | 12.22° C | 50% | 1019.9 hPa | - | - | - | - |
| 1777936363 | 12.22° C | 50% | 1019.9 hPa | - | - | - | - |
| 1777935463 | 12.78° C | 46% | 1020.1 hPa | - | - | - | - |
| 1777934563 | 12.78° C | 47% | 1020.2 hPa | - | - | - | - |
| 1777933663 | 13.33° C | 45% | 1020.2 hPa | - | - | - | - |
| 1777932763 | 13.89° C | 44% | 1020.4 hPa | - | - | - | - |
| 1777931863 | 13.33° C | 46% | 1020.4 hPa | - | - | - | - |
| 1777930963 | 13.33° C | 48% | 1020.3 hPa | - | - | - | - |
| 1777930063 | 13.89° C | 45% | 1020.3 hPa | - | - | - | - |
| 1777929162 | 14.44° C | 47% | 1020.2 hPa | - | - | - | - |
| 1777928296 | 14.44° C | 43% | 1020 hPa | - | - | - | - |
| 1777928265 | 14.44° C | 43% | 1020 hPa | - | - | - | - |
| 1777927364 | 15° C | 40% | 1020 hPa | - | - | - | - |
| 1777926464 | 15° C | 40% | 1020 hPa | - | - | - | - |
| 1777925564 | 15° C | 43% | 1019.9 hPa | - | - | - | - |
| 1777924664 | 15° C | 42% | 1019.9 hPa | - | - | - | - |
* Rain since midnight (hover to see other rain measurements)
** Current wind speed in m/s (hover to see current wind gust speed)